sensor_id;sensor_type;location;lat;lon;timestamp;P1;durP1;ratioP1;P2;durP2;ratioP2
52618;SDS011;38513;53.234;6.568;2022-09-25T00:00:14;11.18;;;3.40;;
52618;SDS011;38513;53.234;6.568;2022-09-25T00:02:40;10.93;;;3.35;;
52618;SDS011;38513;53.234;6.568;2022-09-25T00:05:06;12.30;;;3.97;;
52618;SDS011;38513;53.234;6.568;2022-09-25T00:07:33;12.10;;;3.72;;
52618;SDS011;38513;53.234;6.568;2022-09-25T00:10:00;12.35;;;3.50;;
52618;SDS011;38513;53.234;6.568;2022-09-25T00:12:26;12.90;;;3.40;;
52618;SDS011;38513;53.234;6.568;2022-09-25T00:14:52;15.77;;;3.90;;
52618;SDS011;38513;53.234;6.568;2022-09-25T00:17:18;11.57;;;3.38;;
52618;SDS011;38513;53.234;6.568;2022-09-25T00:19:44;13.68;;;3.92;;
52618;SDS011;38513;53.234;6.568;2022-09-25T00:22:20;12.52;;;3.58;;
52618;SDS011;38513;53.234;6.568;2022-09-25T00:24:46;12.02;;;3.53;;
52618;SDS011;38513;53.234;6.568;2022-09-25T00:27:13;12.32;;;3.97;;
52618;SDS011;38513;53.234;6.568;2022-09-25T00:29:39;12.38;;;4.00;;
52618;SDS011;38513;53.234;6.568;2022-09-25T00:32:06;14.05;;;3.67;;
52618;SDS011;38513;53.234;6.568;2022-09-25T00:34:33;11.68;;;4.00;;
52618;SDS011;38513;53.234;6.568;2022-09-25T00:36:59;12.23;;;3.78;;
52618;SDS011;38513;53.234;6.568;2022-09-25T00:39:25;10.77;;;3.60;;
52618;SDS011;38513;53.234;6.568;2022-09-25T00:41:51;13.45;;;4.10;;
52618;SDS011;38513;53.234;6.568;2022-09-25T00:47:03;13.52;;;4.15;;
52618;SDS011;38513;53.234;6.568;2022-09-25T00:49:29;12.27;;;3.83;;
52618;SDS011;38513;53.234;6.568;2022-09-25T00:51:57;12.23;;;3.80;;
52618;SDS011;38513;53.234;6.568;2022-09-25T00:54:25;13.05;;;3.83;;
52618;SDS011;38513;53.234;6.568;2022-09-25T00:56:52;12.30;;;3.50;;
52618;SDS011;38513;53.234;6.568;2022-09-25T00:59:21;12.20;;;3.55;;
52618;SDS011;38513;53.234;6.568;2022-09-25T01:01:47;15.20;;;3.90;;
52618;SDS011;38513;53.234;6.568;2022-09-25T01:04:13;12.55;;;3.50;;
52618;SDS011;38513;53.234;6.568;2022-09-25T01:06:40;11.73;;;3.42;;
52618;SDS011;38513;53.234;6.568;2022-09-25T01:09:07;12.13;;;3.35;;
52618;SDS011;38513;53.234;6.568;2022-09-25T01:11:33;10.48;;;3.15;;
52618;SDS011;38513;53.234;6.568;2022-09-25T01:14:01;11.68;;;3.85;;
52618;SDS011;38513;53.234;6.568;2022-09-25T01:16:34;12.85;;;3.60;;
52618;SDS011;38513;53.234;6.568;2022-09-25T01:19:25;12.65;;;3.70;;
52618;SDS011;38513;53.234;6.568;2022-09-25T01:24:29;11.75;;;4.03;;
52618;SDS011;38513;53.234;6.568;2022-09-25T01:32:49;13.90;;;4.38;;
52618;SDS011;38513;53.234;6.568;2022-09-25T01:35:10;13.10;;;3.97;;
52618;SDS011;38513;53.234;6.568;2022-09-25T01:37:43;12.38;;;3.95;;
52618;SDS011;38513;53.234;6.568;2022-09-25T01:40:13;12.07;;;3.93;;
52618;SDS011;38513;53.234;6.568;2022-09-25T01:42:43;14.35;;;3.72;;
52618;SDS011;38513;53.234;6.568;2022-09-25T01:45:15;12.10;;;3.70;;
52618;SDS011;38513;53.234;6.568;2022-09-25T01:47:44;11.82;;;3.58;;
52618;SDS011;38513;53.234;6.568;2022-09-25T01:50:34;11.70;;;3.58;;
52618;SDS011;38513;53.234;6.568;2022-09-25T01:53:00;11.10;;;3.40;;
52618;SDS011;38513;53.234;6.568;2022-09-25T01:55:34;11.05;;;3.40;;
52618;SDS011;38513;53.234;6.568;2022-09-25T01:58:23;11.45;;;3.53;;
52618;SDS011;38513;53.234;6.568;2022-09-25T02:00:53;10.55;;;3.30;;
52618;SDS011;38513;53.234;6.568;2022-09-25T02:03:22;11.05;;;3.45;;
52618;SDS011;38513;53.234;6.568;2022-09-25T02:05:52;11.57;;;3.30;;
52618;SDS011;38513;53.234;6.568;2022-09-25T02:08:22;11.90;;;3.35;;
52618;SDS011;38513;53.234;6.568;2022-09-25T02:10:50;11.57;;;3.40;;
52618;SDS011;38513;53.234;6.568;2022-09-25T02:13:20;14.40;;;3.40;;
52618;SDS011;38513;53.234;6.568;2022-09-25T02:15:55;11.57;;;3.37;;
52618;SDS011;38513;53.234;6.568;2022-09-25T02:18:21;11.77;;;3.40;;
52618;SDS011;38513;53.234;6.568;2022-09-25T02:21:11;10.18;;;3.10;;
52618;SDS011;38513;53.234;6.568;2022-09-25T02:26:30;11.38;;;3.10;;
52618;SDS011;38513;53.234;6.568;2022-09-25T02:28:57;9.48;;;3.00;;
52618;SDS011;38513;53.234;6.568;2022-09-25T02:31:24;12.02;;;3.28;;
52618;SDS011;38513;53.234;6.568;2022-09-25T02:33:54;12.55;;;3.08;;
52618;SDS011;38513;53.234;6.568;2022-09-25T02:36:20;10.32;;;3.38;;
52618;SDS011;38513;53.234;6.568;2022-09-25T02:38:48;15.45;;;3.30;;
52618;SDS011;38513;53.234;6.568;2022-09-25T02:43:54;11.88;;;3.33;;
52618;SDS011;38513;53.234;6.568;2022-09-25T02:46:35;10.43;;;2.90;;
52618;SDS011;38513;53.234;6.568;2022-09-25T02:51:43;9.93;;;3.20;;
52618;SDS011;38513;53.234;6.568;2022-09-25T02:54:15;10.43;;;3.42;;
52618;SDS011;38513;53.234;6.568;2022-09-25T02:56:53;11.32;;;3.33;;
52618;SDS011;38513;53.234;6.568;2022-09-25T02:59:23;14.48;;;3.90;;
52618;SDS011;38513;53.234;6.568;2022-09-25T03:01:51;9.77;;;3.40;;
52618;SDS011;38513;53.234;6.568;2022-09-25T03:04:18;11.90;;;3.70;;
52618;SDS011;38513;53.234;6.568;2022-09-25T03:06:44;12.23;;;3.30;;
52618;SDS011;38513;53.234;6.568;2022-09-25T03:09:11;13.05;;;3.97;;
52618;SDS011;38513;53.234;6.568;2022-09-25T03:11:38;12.37;;;3.60;;
52618;SDS011;38513;53.234;6.568;2022-09-25T03:14:07;15.15;;;3.50;;
52618;SDS011;38513;53.234;6.568;2022-09-25T03:19:05;14.73;;;4.30;;
52618;SDS011;38513;53.234;6.568;2022-09-25T03:21:32;11.67;;;3.90;;
52618;SDS011;38513;53.234;6.568;2022-09-25T03:23:58;14.57;;;4.10;;
52618;SDS011;38513;53.234;6.568;2022-09-25T03:26:25;12.40;;;3.60;;
52618;SDS011;38513;53.234;6.568;2022-09-25T03:28:51;12.98;;;3.85;;
52618;SDS011;38513;53.234;6.568;2022-09-25T03:31:18;10.02;;;3.45;;
52618;SDS011;38513;53.234;6.568;2022-09-25T03:33:44;11.00;;;3.47;;
52618;SDS011;38513;53.234;6.568;2022-09-25T03:36:14;10.23;;;3.47;;
52618;SDS011;38513;53.234;6.568;2022-09-25T03:38:43;10.35;;;3.35;;
52618;SDS011;38513;53.234;6.568;2022-09-25T03:41:11;12.02;;;3.65;;
52618;SDS011;38513;53.234;6.568;2022-09-25T03:43:38;11.88;;;3.40;;
52618;SDS011;38513;53.234;6.568;2022-09-25T03:46:05;8.27;;;3.35;;
52618;SDS011;38513;53.234;6.568;2022-09-25T03:48:32;10.15;;;3.00;;
52618;SDS011;38513;53.234;6.568;2022-09-25T03:50:58;13.05;;;3.65;;
52618;SDS011;38513;53.234;6.568;2022-09-25T03:53:25;12.95;;;3.20;;
52618;SDS011;38513;53.234;6.568;2022-09-25T03:55:52;11.60;;;3.10;;
52618;SDS011;38513;53.234;6.568;2022-09-25T03:58:18;13.35;;;3.55;;
52618;SDS011;38513;53.234;6.568;2022-09-25T04:00:45;10.25;;;3.17;;
52618;SDS011;38513;53.234;6.568;2022-09-25T04:03:11;9.75;;;3.20;;
52618;SDS011;38513;53.234;6.568;2022-09-25T04:05:38;11.02;;;3.72;;
52618;SDS011;38513;53.234;6.568;2022-09-25T04:08:04;12.77;;;3.22;;
52618;SDS011;38513;53.234;6.568;2022-09-25T04:10:32;12.10;;;3.22;;
52618;SDS011;38513;53.234;6.568;2022-09-25T04:13:03;11.73;;;3.33;;
52618;SDS011;38513;53.234;6.568;2022-09-25T04:15:30;11.00;;;3.47;;
52618;SDS011;38513;53.234;6.568;2022-09-25T04:17:57;10.65;;;3.17;;
52618;SDS011;38513;53.234;6.568;2022-09-25T04:20:23;11.13;;;3.03;;
52618;SDS011;38513;53.234;6.568;2022-09-25T04:22:49;11.43;;;3.28;;
52618;SDS011;38513;53.234;6.568;2022-09-25T04:25:15;10.37;;;3.33;;
52618;SDS011;38513;53.234;6.568;2022-09-25T04:27:48;11.85;;;3.70;;
52618;SDS011;38513;53.234;6.568;2022-09-25T04:30:14;10.68;;;3.50;;
52618;SDS011;38513;53.234;6.568;2022-09-25T04:32:40;10.60;;;3.40;;
52618;SDS011;38513;53.234;6.568;2022-09-25T04:35:25;11.07;;;3.35;;
52618;SDS011;38513;53.234;6.568;2022-09-25T04:37:51;11.63;;;3.70;;
52618;SDS011;38513;53.234;6.568;2022-09-25T04:40:17;11.73;;;3.42;;
52618;SDS011;38513;53.234;6.568;2022-09-25T04:42:43;9.55;;;3.17;;
52618;SDS011;38513;53.234;6.568;2022-09-25T04:45:09;11.52;;;3.65;;
52618;SDS011;38513;53.234;6.568;2022-09-25T04:47:35;9.57;;;3.40;;
52618;SDS011;38513;53.234;6.568;2022-09-25T04:50:01;12.30;;;3.35;;
52618;SDS011;38513;53.234;6.568;2022-09-25T04:52:28;8.13;;;3.20;;
52618;SDS011;38513;53.234;6.568;2022-09-25T04:54:56;9.13;;;3.20;;
52618;SDS011;38513;53.234;6.568;2022-09-25T04:57:22;11.35;;;2.83;;
52618;SDS011;38513;53.234;6.568;2022-09-25T04:59:50;11.25;;;3.47;;
52618;SDS011;38513;53.234;6.568;2022-09-25T05:02:17;12.18;;;3.40;;
52618;SDS011;38513;53.234;6.568;2022-09-25T05:04:43;10.93;;;3.25;;
52618;SDS011;38513;53.234;6.568;2022-09-25T05:07:09;9.60;;;2.93;;
52618;SDS011;38513;53.234;6.568;2022-09-25T05:09:35;11.88;;;3.38;;
52618;SDS011;38513;53.234;6.568;2022-09-25T05:12:05;11.40;;;3.10;;
52618;SDS011;38513;53.234;6.568;2022-09-25T05:14:31;9.50;;;3.00;;
52618;SDS011;38513;53.234;6.568;2022-09-25T05:16:57;9.70;;;3.40;;
52618;SDS011;38513;53.234;6.568;2022-09-25T05:19:23;8.43;;;2.95;;
52618;SDS011;38513;53.234;6.568;2022-09-25T05:21:51;8.90;;;3.13;;
52618;SDS011;38513;53.234;6.568;2022-09-25T05:24:17;10.13;;;3.53;;
52618;SDS011;38513;53.234;6.568;2022-09-25T05:26:44;10.15;;;3.10;;
52618;SDS011;38513;53.234;6.568;2022-09-25T05:29:10;9.68;;;3.50;;
52618;SDS011;38513;53.234;6.568;2022-09-25T05:31:38;9.13;;;2.95;;
52618;SDS011;38513;53.234;6.568;2022-09-25T05:34:07;11.80;;;3.67;;
52618;SDS011;38513;53.234;6.568;2022-09-25T05:36:34;11.15;;;3.05;;
52618;SDS011;38513;53.234;6.568;2022-09-25T05:39:00;10.35;;;3.28;;
52618;SDS011;38513;53.234;6.568;2022-09-25T05:41:26;8.85;;;3.20;;
52618;SDS011;38513;53.234;6.568;2022-09-25T05:43:53;9.68;;;3.05;;
52618;SDS011;38513;53.234;6.568;2022-09-25T05:46:20;10.13;;;3.20;;
52618;SDS011;38513;53.234;6.568;2022-09-25T05:48:46;13.00;;;3.55;;
52618;SDS011;38513;53.234;6.568;2022-09-25T05:51:13;10.60;;;3.10;;
52618;SDS011;38513;53.234;6.568;2022-09-25T05:53:39;9.05;;;3.28;;
52618;SDS011;38513;53.234;6.568;2022-09-25T05:56:06;9.55;;;3.30;;
52618;SDS011;38513;53.234;6.568;2022-09-25T05:58:35;10.40;;;3.45;;
52618;SDS011;38513;53.234;6.568;2022-09-25T06:01:42;12.23;;;3.50;;
52618;SDS011;38513;53.234;6.568;2022-09-25T06:04:09;10.15;;;3.10;;
52618;SDS011;38513;53.234;6.568;2022-09-25T06:06:35;8.38;;;3.10;;
52618;SDS011;38513;53.234;6.568;2022-09-25T06:09:02;11.07;;;3.10;;
52618;SDS011;38513;53.234;6.568;2022-09-25T06:11:34;11.95;;;3.22;;
52618;SDS011;38513;53.234;6.568;2022-09-25T06:14:00;9.85;;;3.10;;
52618;SDS011;38513;53.234;6.568;2022-09-25T06:16:29;11.80;;;3.07;;
52618;SDS011;38513;53.234;6.568;2022-09-25T06:18:55;8.77;;;3.20;;
52618;SDS011;38513;53.234;6.568;2022-09-25T06:21:22;10.82;;;3.40;;
52618;SDS011;38513;53.234;6.568;2022-09-25T06:23:48;11.27;;;3.50;;
52618;SDS011;38513;53.234;6.568;2022-09-25T06:26:14;9.45;;;3.25;;
52618;SDS011;38513;53.234;6.568;2022-09-25T06:28:40;11.60;;;3.90;;
52618;SDS011;38513;53.234;6.568;2022-09-25T06:31:07;9.55;;;3.10;;
52618;SDS011;38513;53.234;6.568;2022-09-25T06:33:34;8.23;;;3.17;;
52618;SDS011;38513;53.234;6.568;2022-09-25T06:36:00;12.15;;;3.55;;
52618;SDS011;38513;53.234;6.568;2022-09-25T06:38:26;9.13;;;3.60;;
52618;SDS011;38513;53.234;6.568;2022-09-25T06:40:52;11.25;;;4.22;;
52618;SDS011;38513;53.234;6.568;2022-09-25T06:43:18;8.67;;;3.27;;
52618;SDS011;38513;53.234;6.568;2022-09-25T06:45:45;8.63;;;3.30;;
52618;SDS011;38513;53.234;6.568;2022-09-25T06:48:17;11.60;;;3.53;;
52618;SDS011;38513;53.234;6.568;2022-09-25T06:50:50;13.70;;;3.47;;
52618;SDS011;38513;53.234;6.568;2022-09-25T06:53:24;10.27;;;3.50;;
52618;SDS011;38513;53.234;6.568;2022-09-25T06:55:55;10.60;;;3.20;;
52618;SDS011;38513;53.234;6.568;2022-09-25T06:58:23;9.73;;;3.30;;
52618;SDS011;38513;53.234;6.568;2022-09-25T07:00:56;11.35;;;3.03;;
52618;SDS011;38513;53.234;6.568;2022-09-25T07:03:22;8.38;;;2.90;;
52618;SDS011;38513;53.234;6.568;2022-09-25T07:06:08;11.55;;;3.13;;
52618;SDS011;38513;53.234;6.568;2022-09-25T07:08:35;10.98;;;3.00;;
52618;SDS011;38513;53.234;6.568;2022-09-25T07:11:02;13.00;;;3.00;;
52618;SDS011;38513;53.234;6.568;2022-09-25T07:13:29;13.30;;;2.90;;
52618;SDS011;38513;53.234;6.568;2022-09-25T07:15:57;10.55;;;2.88;;
52618;SDS011;38513;53.234;6.568;2022-09-25T07:18:27;9.63;;;2.50;;
52618;SDS011;38513;53.234;6.568;2022-09-25T07:20:58;9.70;;;2.53;;
52618;SDS011;38513;53.234;6.568;2022-09-25T07:23:24;10.37;;;2.53;;
52618;SDS011;38513;53.234;6.568;2022-09-25T07:25:52;11.77;;;2.25;;
52618;SDS011;38513;53.234;6.568;2022-09-25T07:28:18;9.65;;;2.30;;
52618;SDS011;38513;53.234;6.568;2022-09-25T07:30:47;13.07;;;2.58;;
52618;SDS011;38513;53.234;6.568;2022-09-25T07:33:23;10.77;;;2.42;;
52618;SDS011;38513;53.234;6.568;2022-09-25T07:35:50;10.60;;;2.60;;
52618;SDS011;38513;53.234;6.568;2022-09-25T07:38:18;8.77;;;2.63;;
52618;SDS011;38513;53.234;6.568;2022-09-25T07:40:47;8.48;;;1.90;;
52618;SDS011;38513;53.234;6.568;2022-09-25T07:43:14;8.13;;;1.97;;
52618;SDS011;38513;53.234;6.568;2022-09-25T07:45:40;7.35;;;1.63;;
52618;SDS011;38513;53.234;6.568;2022-09-25T07:48:17;9.15;;;2.20;;
52618;SDS011;38513;53.234;6.568;2022-09-25T07:50:46;9.97;;;2.20;;
52618;SDS011;38513;53.234;6.568;2022-09-25T07:53:38;6.13;;;1.40;;
52618;SDS011;38513;53.234;6.568;2022-09-25T07:56:21;7.22;;;1.35;;
52618;SDS011;38513;53.234;6.568;2022-09-25T07:58:47;6.28;;;1.20;;
52618;SDS011;38513;53.234;6.568;2022-09-25T08:01:17;8.43;;;1.30;;
52618;SDS011;38513;53.234;6.568;2022-09-25T08:03:44;6.88;;;1.20;;
52618;SDS011;38513;53.234;6.568;2022-09-25T08:06:11;6.25;;;1.00;;
52618;SDS011;38513;53.234;6.568;2022-09-25T08:08:38;6.80;;;1.15;;
52618;SDS011;38513;53.234;6.568;2022-09-25T08:11:13;4.85;;;0.93;;
52618;SDS011;38513;53.234;6.568;2022-09-25T08:13:41;7.30;;;1.10;;
52618;SDS011;38513;53.234;6.568;2022-09-25T08:16:08;5.55;;;1.10;;
52618;SDS011;38513;53.234;6.568;2022-09-25T08:18:40;5.95;;;1.17;;
52618;SDS011;38513;53.234;6.568;2022-09-25T08:21:18;7.75;;;1.30;;
52618;SDS011;38513;53.234;6.568;2022-09-25T08:23:52;8.15;;;1.92;;
52618;SDS011;38513;53.234;6.568;2022-09-25T08:26:20;9.50;;;1.67;;
52618;SDS011;38513;53.234;6.568;2022-09-25T08:28:47;7.78;;;1.23;;
52618;SDS011;38513;53.234;6.568;2022-09-25T08:31:18;6.25;;;1.08;;
52618;SDS011;38513;53.234;6.568;2022-09-25T08:33:48;7.38;;;1.20;;
52618;SDS011;38513;53.234;6.568;2022-09-25T08:36:15;7.20;;;1.60;;
52618;SDS011;38513;53.234;6.568;2022-09-25T08:38:41;12.15;;;2.03;;
52618;SDS011;38513;53.234;6.568;2022-09-25T08:41:16;8.88;;;1.70;;
52618;SDS011;38513;53.234;6.568;2022-09-25T08:43:46;10.23;;;1.77;;
52618;SDS011;38513;53.234;6.568;2022-09-25T08:46:21;7.47;;;1.40;;
52618;SDS011;38513;53.234;6.568;2022-09-25T08:49:06;6.70;;;1.42;;
52618;SDS011;38513;53.234;6.568;2022-09-25T08:51:43;8.32;;;1.30;;
52618;SDS011;38513;53.234;6.568;2022-09-25T08:54:22;4.70;;;0.80;;
52618;SDS011;38513;53.234;6.568;2022-09-25T08:56:59;4.85;;;1.00;;
52618;SDS011;38513;53.234;6.568;2022-09-25T08:59:27;3.90;;;0.80;;
52618;SDS011;38513;53.234;6.568;2022-09-25T09:01:58;5.23;;;1.30;;
52618;SDS011;38513;53.234;6.568;2022-09-25T09:06:56;7.05;;;1.00;;
52618;SDS011;38513;53.234;6.568;2022-09-25T09:09:26;5.65;;;1.15;;
52618;SDS011;38513;53.234;6.568;2022-09-25T09:12:00;4.68;;;1.08;;
52618;SDS011;38513;53.234;6.568;2022-09-25T09:14:55;6.30;;;1.10;;
52618;SDS011;38513;53.234;6.568;2022-09-25T09:17:28;7.35;;;1.40;;
52618;SDS011;38513;53.234;6.568;2022-09-25T09:20:17;4.63;;;1.23;;
52618;SDS011;38513;53.234;6.568;2022-09-25T09:22:46;5.45;;;1.35;;
52618;SDS011;38513;53.234;6.568;2022-09-25T09:34:46;7.57;;;1.60;;
52618;SDS011;38513;53.234;6.568;2022-09-25T09:51:22;7.05;;;1.40;;
52618;SDS011;38513;53.234;6.568;2022-09-25T09:56:56;8.70;;;1.65;;
52618;SDS011;38513;53.234;6.568;2022-09-25T10:02:31;5.95;;;1.58;;
52618;SDS011;38513;53.234;6.568;2022-09-25T10:04:58;6.72;;;1.48;;
52618;SDS011;38513;53.234;6.568;2022-09-25T10:07:32;8.25;;;1.65;;
52618;SDS011;38513;53.234;6.568;2022-09-25T10:09:59;7.28;;;1.23;;
52618;SDS011;38513;53.234;6.568;2022-09-25T10:12:26;6.73;;;1.37;;
52618;SDS011;38513;53.234;6.568;2022-09-25T10:14:54;5.30;;;1.20;;
52618;SDS011;38513;53.234;6.568;2022-09-25T10:17:20;8.13;;;1.70;;
52618;SDS011;38513;53.234;6.568;2022-09-25T10:19:50;7.10;;;1.87;;
52618;SDS011;38513;53.234;6.568;2022-09-25T10:22:18;7.45;;;1.40;;
52618;SDS011;38513;53.234;6.568;2022-09-25T10:27:32;7.05;;;1.02;;
52618;SDS011;38513;53.234;6.568;2022-09-25T10:32:34;7.63;;;0.98;;
52618;SDS011;38513;53.234;6.568;2022-09-25T10:37:59;7.38;;;1.10;;
52618;SDS011;38513;53.234;6.568;2022-09-25T10:40:35;4.85;;;0.80;;
52618;SDS011;38513;53.234;6.568;2022-09-25T10:45:40;4.72;;;1.17;;
52618;SDS011;38513;53.234;6.568;2022-09-25T10:51:12;4.80;;;0.80;;
52618;SDS011;38513;53.234;6.568;2022-09-25T10:53:45;4.88;;;0.90;;
52618;SDS011;38513;53.234;6.568;2022-09-25T10:56:21;3.67;;;0.70;;
52618;SDS011;38513;53.234;6.568;2022-09-25T11:01:41;3.38;;;0.70;;
52618;SDS011;38513;53.234;6.568;2022-09-25T11:07:18;3.35;;;0.80;;
52618;SDS011;38513;53.234;6.568;2022-09-25T11:09:51;2.93;;;0.57;;
52618;SDS011;38513;53.234;6.568;2022-09-25T11:12:22;3.40;;;0.70;;
52618;SDS011;38513;53.234;6.568;2022-09-25T11:17:41;3.70;;;0.80;;
52618;SDS011;38513;53.234;6.568;2022-09-25T11:20:27;3.15;;;1.10;;
52618;SDS011;38513;53.234;6.568;2022-09-25T11:23:01;5.07;;;0.80;;
52618;SDS011;38513;53.234;6.568;2022-09-25T11:25:33;4.13;;;0.80;;
52618;SDS011;38513;53.234;6.568;2022-09-25T11:31:33;3.83;;;0.77;;
52618;SDS011;38513;53.234;6.568;2022-09-25T12:12:08;6.05;;;1.25;;
52618;SDS011;38513;53.234;6.568;2022-09-25T12:15:04;5.90;;;0.90;;
52618;SDS011;38513;53.234;6.568;2022-09-25T12:32:37;6.60;;;1.05;;
52618;SDS011;38513;53.234;6.568;2022-09-25T12:35:32;5.60;;;1.02;;
52618;SDS011;38513;53.234;6.568;2022-09-25T12:43:46;4.57;;;0.90;;
52618;SDS011;38513;53.234;6.568;2022-09-25T12:46:27;6.32;;;1.08;;
52618;SDS011;38513;53.234;6.568;2022-09-25T12:49:16;5.60;;;0.90;;
52618;SDS011;38513;53.234;6.568;2022-09-25T12:51:48;4.40;;;0.90;;
52618;SDS011;38513;53.234;6.568;2022-09-25T12:57:13;4.82;;;0.80;;
52618;SDS011;38513;53.234;6.568;2022-09-25T13:02:40;5.40;;;0.83;;
52618;SDS011;38513;53.234;6.568;2022-09-25T13:05:28;3.75;;;0.77;;
52618;SDS011;38513;53.234;6.568;2022-09-25T13:10:38;4.78;;;0.88;;
52618;SDS011;38513;53.234;6.568;2022-09-25T13:13:08;4.47;;;0.80;;
52618;SDS011;38513;53.234;6.568;2022-09-25T13:15:35;7.97;;;1.00;;
52618;SDS011;38513;53.234;6.568;2022-09-25T13:18:09;5.00;;;0.90;;
52618;SDS011;38513;53.234;6.568;2022-09-25T13:23:22;5.35;;;0.75;;
52618;SDS011;38513;53.234;6.568;2022-09-25T13:25:49;5.72;;;0.90;;
52618;SDS011;38513;53.234;6.568;2022-09-25T13:28:37;3.63;;;0.70;;
52618;SDS011;38513;53.234;6.568;2022-09-25T13:31:11;4.13;;;0.65;;
52618;SDS011;38513;53.234;6.568;2022-09-25T13:33:45;5.95;;;1.02;;
52618;SDS011;38513;53.234;6.568;2022-09-25T13:38:48;6.85;;;0.90;;
52618;SDS011;38513;53.234;6.568;2022-09-25T13:41:33;5.00;;;1.00;;
52618;SDS011;38513;53.234;6.568;2022-09-25T13:46:45;4.82;;;0.85;;
52618;SDS011;38513;53.234;6.568;2022-09-25T13:55:10;5.75;;;0.90;;
52618;SDS011;38513;53.234;6.568;2022-09-25T14:03:00;4.07;;;0.82;;
52618;SDS011;38513;53.234;6.568;2022-09-25T14:05:34;4.90;;;0.80;;
52618;SDS011;38513;53.234;6.568;2022-09-25T14:08:11;4.68;;;1.10;;
52618;SDS011;38513;53.234;6.568;2022-09-25T14:10:46;5.22;;;0.90;;
52618;SDS011;38513;53.234;6.568;2022-09-25T14:13:15;6.63;;;1.00;;
52618;SDS011;38513;53.234;6.568;2022-09-25T14:15:42;4.67;;;0.83;;
52618;SDS011;38513;53.234;6.568;2022-09-25T14:18:14;6.13;;;1.02;;
52618;SDS011;38513;53.234;6.568;2022-09-25T14:20:42;7.32;;;0.88;;
52618;SDS011;38513;53.234;6.568;2022-09-25T14:23:22;5.05;;;0.80;;
52618;SDS011;38513;53.234;6.568;2022-09-25T14:26:02;5.85;;;0.80;;
52618;SDS011;38513;53.234;6.568;2022-09-25T14:28:43;4.93;;;0.80;;
52618;SDS011;38513;53.234;6.568;2022-09-25T14:39:56;5.50;;;1.00;;
52618;SDS011;38513;53.234;6.568;2022-09-25T14:42:37;5.77;;;1.70;;
52618;SDS011;38513;53.234;6.568;2022-09-25T14:45:15;10.15;;;2.88;;
52618;SDS011;38513;53.234;6.568;2022-09-25T14:47:46;5.85;;;1.25;;
52618;SDS011;38513;53.234;6.568;2022-09-25T14:50:32;8.53;;;1.90;;
52618;SDS011;38513;53.234;6.568;2022-09-25T14:53:01;5.88;;;1.27;;
52618;SDS011;38513;53.234;6.568;2022-09-25T14:55:31;5.03;;;1.17;;
52618;SDS011;38513;53.234;6.568;2022-09-25T14:58:00;5.57;;;1.10;;
52618;SDS011;38513;53.234;6.568;2022-09-25T15:00:29;6.63;;;1.10;;
52618;SDS011;38513;53.234;6.568;2022-09-25T15:02:56;5.38;;;1.00;;
52618;SDS011;38513;53.234;6.568;2022-09-25T15:07:52;6.13;;;0.98;;
52618;SDS011;38513;53.234;6.568;2022-09-25T15:10:30;4.30;;;0.80;;
52618;SDS011;38513;53.234;6.568;2022-09-25T15:15:50;6.80;;;1.00;;
52618;SDS011;38513;53.234;6.568;2022-09-25T15:18:43;6.22;;;1.15;;
52618;SDS011;38513;53.234;6.568;2022-09-25T15:21:33;5.95;;;0.95;;
52618;SDS011;38513;53.234;6.568;2022-09-25T15:24:14;3.90;;;0.70;;
52618;SDS011;38513;53.234;6.568;2022-09-25T15:26:48;5.25;;;0.70;;
52618;SDS011;38513;53.234;6.568;2022-09-25T15:35:24;5.32;;;0.77;;
52618;SDS011;38513;53.234;6.568;2022-09-25T15:38:11;5.07;;;0.75;;
52618;SDS011;38513;53.234;6.568;2022-09-25T15:46:46;5.78;;;1.00;;
52618;SDS011;38513;53.234;6.568;2022-09-25T15:49:14;5.60;;;0.75;;
52618;SDS011;38513;53.234;6.568;2022-09-25T15:51:51;4.13;;;0.75;;
52618;SDS011;38513;53.234;6.568;2022-09-25T15:59:42;6.43;;;2.10;;
52618;SDS011;38513;53.234;6.568;2022-09-25T16:02:30;13.50;;;6.88;;
52618;SDS011;38513;53.234;6.568;2022-09-25T16:05:17;5.43;;;1.00;;
52618;SDS011;38513;53.234;6.568;2022-09-25T16:07:45;6.55;;;2.60;;
52618;SDS011;38513;53.234;6.568;2022-09-25T16:12:59;8.07;;;3.67;;
52618;SDS011;38513;53.234;6.568;2022-09-25T16:20:46;6.27;;;0.83;;
52618;SDS011;38513;53.234;6.568;2022-09-25T16:23:26;5.43;;;1.00;;
52618;SDS011;38513;53.234;6.568;2022-09-25T16:26:03;5.45;;;1.00;;
52618;SDS011;38513;53.234;6.568;2022-09-25T16:32:00;4.35;;;1.00;;
52618;SDS011;38513;53.234;6.568;2022-09-25T16:34:29;4.70;;;0.90;;
52618;SDS011;38513;53.234;6.568;2022-09-25T16:37:00;5.85;;;0.98;;
52618;SDS011;38513;53.234;6.568;2022-09-25T16:39:29;7.15;;;1.27;;
52618;SDS011;38513;53.234;6.568;2022-09-25T16:41:58;6.45;;;1.00;;
52618;SDS011;38513;53.234;6.568;2022-09-25T16:49:20;5.70;;;1.02;;
52618;SDS011;38513;53.234;6.568;2022-09-25T16:51:46;7.28;;;1.10;;
52618;SDS011;38513;53.234;6.568;2022-09-25T16:54:16;6.68;;;1.30;;
52618;SDS011;38513;53.234;6.568;2022-09-25T16:56:46;5.88;;;1.20;;
52618;SDS011;38513;53.234;6.568;2022-09-25T16:59:16;5.50;;;1.08;;
52618;SDS011;38513;53.234;6.568;2022-09-25T17:01:43;7.85;;;1.50;;
52618;SDS011;38513;53.234;6.568;2022-09-25T17:04:10;7.30;;;0.93;;
52618;SDS011;38513;53.234;6.568;2022-09-25T17:06:39;6.32;;;1.10;;
52618;SDS011;38513;53.234;6.568;2022-09-25T17:09:09;7.55;;;1.67;;
52618;SDS011;38513;53.234;6.568;2022-09-25T17:11:36;7.85;;;1.83;;
52618;SDS011;38513;53.234;6.568;2022-09-25T17:14:03;5.83;;;1.10;;
52618;SDS011;38513;53.234;6.568;2022-09-25T17:16:32;6.57;;;1.30;;
52618;SDS011;38513;53.234;6.568;2022-09-25T17:18:59;6.13;;;1.20;;
52618;SDS011;38513;53.234;6.568;2022-09-25T17:21:27;5.85;;;0.98;;
52618;SDS011;38513;53.234;6.568;2022-09-25T17:23:53;6.57;;;1.20;;
52618;SDS011;38513;53.234;6.568;2022-09-25T17:26:20;7.82;;;1.25;;
52618;SDS011;38513;53.234;6.568;2022-09-25T17:28:47;5.18;;;1.30;;
52618;SDS011;38513;53.234;6.568;2022-09-25T17:31:20;8.23;;;2.97;;
52618;SDS011;38513;53.234;6.568;2022-09-25T17:36:41;5.57;;;1.25;;
52618;SDS011;38513;53.234;6.568;2022-09-25T17:39:11;6.22;;;1.30;;
52618;SDS011;38513;53.234;6.568;2022-09-25T17:41:41;7.15;;;1.30;;
52618;SDS011;38513;53.234;6.568;2022-09-25T17:44:11;6.97;;;1.50;;
52618;SDS011;38513;53.234;6.568;2022-09-25T17:49:25;5.22;;;1.30;;
52618;SDS011;38513;53.234;6.568;2022-09-25T17:54:55;7.32;;;1.50;;
52618;SDS011;38513;53.234;6.568;2022-09-25T17:57:39;5.95;;;1.50;;
52618;SDS011;38513;53.234;6.568;2022-09-25T18:00:26;6.32;;;1.50;;
52618;SDS011;38513;53.234;6.568;2022-09-25T18:02:52;5.65;;;1.50;;
52618;SDS011;38513;53.234;6.568;2022-09-25T18:05:19;7.15;;;1.60;;
52618;SDS011;38513;53.234;6.568;2022-09-25T18:07:56;6.60;;;1.83;;
52618;SDS011;38513;53.234;6.568;2022-09-25T18:10:23;7.25;;;1.60;;
52618;SDS011;38513;53.234;6.568;2022-09-25T18:12:54;6.60;;;1.60;;
52618;SDS011;38513;53.234;6.568;2022-09-25T18:15:20;7.22;;;1.40;;
52618;SDS011;38513;53.234;6.568;2022-09-25T18:17:49;5.97;;;1.50;;
52618;SDS011;38513;53.234;6.568;2022-09-25T18:20:16;5.88;;;1.40;;
52618;SDS011;38513;53.234;6.568;2022-09-25T18:23:01;6.72;;;1.33;;
52618;SDS011;38513;53.234;6.568;2022-09-25T18:25:28;5.85;;;1.40;;
52618;SDS011;38513;53.234;6.568;2022-09-25T18:28:01;6.10;;;1.75;;
52618;SDS011;38513;53.234;6.568;2022-09-25T18:30:32;5.50;;;1.70;;
52618;SDS011;38513;53.234;6.568;2022-09-25T18:32:59;6.50;;;2.03;;
52618;SDS011;38513;53.234;6.568;2022-09-25T18:35:25;7.90;;;1.65;;
52618;SDS011;38513;53.234;6.568;2022-09-25T18:37:51;6.38;;;1.63;;
52618;SDS011;38513;53.234;6.568;2022-09-25T18:40:18;6.77;;;1.60;;
52618;SDS011;38513;53.234;6.568;2022-09-25T18:42:45;5.90;;;1.60;;
52618;SDS011;38513;53.234;6.568;2022-09-25T18:45:12;7.45;;;1.70;;